sensor_id;sensor_type;location;lat;lon;timestamp;P1;durP1;ratioP1;P2;durP2;ratioP2
10174;SDS011;18221;38.704;0.152;2022-07-03T00:08:56;5.97;;;2.90;;
10174;SDS011;18221;38.704;0.152;2022-07-03T00:11:27;4.00;;;2.77;;
10174;SDS011;18221;38.704;0.152;2022-07-03T00:13:56;5.53;;;2.90;;
10174;SDS011;18221;38.704;0.152;2022-07-03T00:16:24;5.50;;;2.57;;
10174;SDS011;18221;38.704;0.152;2022-07-03T00:18:52;7.83;;;3.40;;
10174;SDS011;18221;38.704;0.152;2022-07-03T00:21:20;5.73;;;3.00;;
10174;SDS011;18221;38.704;0.152;2022-07-03T00:24:02;6.37;;;2.80;;
10174;SDS011;18221;38.704;0.152;2022-07-03T00:26:37;3.77;;;2.27;;
10174;SDS011;18221;38.704;0.152;2022-07-03T00:29:07;6.50;;;2.80;;
10174;SDS011;18221;38.704;0.152;2022-07-03T00:31:39;4.60;;;2.30;;
10174;SDS011;18221;38.704;0.152;2022-07-03T00:34:07;4.67;;;2.60;;
10174;SDS011;18221;38.704;0.152;2022-07-03T00:36:38;3.10;;;2.07;;
10174;SDS011;18221;38.704;0.152;2022-07-03T00:39:07;3.40;;;2.50;;
10174;SDS011;18221;38.704;0.152;2022-07-03T00:41:36;3.17;;;2.50;;
10174;SDS011;18221;38.704;0.152;2022-07-03T00:44:04;5.43;;;2.50;;
10174;SDS011;18221;38.704;0.152;2022-07-03T00:46:33;2.50;;;2.10;;
10174;SDS011;18221;38.704;0.152;2022-07-03T00:49:06;6.03;;;2.57;;
10174;SDS011;18221;38.704;0.152;2022-07-03T00:51:37;3.40;;;2.33;;
10174;SDS011;18221;38.704;0.152;2022-07-03T00:54:07;4.40;;;2.17;;
10174;SDS011;18221;38.704;0.152;2022-07-03T00:56:39;2.90;;;2.37;;
10174;SDS011;18221;38.704;0.152;2022-07-03T00:59:17;2.57;;;1.97;;
10174;SDS011;18221;38.704;0.152;2022-07-03T01:01:46;3.80;;;2.13;;
10174;SDS011;18221;38.704;0.152;2022-07-03T01:04:22;3.23;;;2.27;;
10174;SDS011;18221;38.704;0.152;2022-07-03T01:07:15;4.80;;;2.60;;
10174;SDS011;18221;38.704;0.152;2022-07-03T01:10:00;4.20;;;2.47;;
10174;SDS011;18221;38.704;0.152;2022-07-03T01:12:43;4.77;;;2.40;;
10174;SDS011;18221;38.704;0.152;2022-07-03T01:15:30;3.23;;;2.43;;
10174;SDS011;18221;38.704;0.152;2022-07-03T01:18:18;4.20;;;2.27;;
10174;SDS011;18221;38.704;0.152;2022-07-03T01:21:04;4.67;;;2.40;;
10174;SDS011;18221;38.704;0.152;2022-07-03T01:23:41;3.17;;;2.20;;
10174;SDS011;18221;38.704;0.152;2022-07-03T01:26:45;5.60;;;2.37;;
10174;SDS011;18221;38.704;0.152;2022-07-03T01:29:18;5.30;;;2.20;;
10174;SDS011;18221;38.704;0.152;2022-07-03T01:32:08;5.27;;;2.53;;
10174;SDS011;18221;38.704;0.152;2022-07-03T01:34:42;4.80;;;2.33;;
10174;SDS011;18221;38.704;0.152;2022-07-03T01:37:17;4.27;;;2.50;;
10174;SDS011;18221;38.704;0.152;2022-07-03T01:39:52;2.67;;;2.03;;
10174;SDS011;18221;38.704;0.152;2022-07-03T01:42:21;3.37;;;2.40;;
10174;SDS011;18221;38.704;0.152;2022-07-03T01:44:51;4.27;;;2.27;;
10174;SDS011;18221;38.704;0.152;2022-07-03T01:47:22;4.50;;;2.23;;
10174;SDS011;18221;38.704;0.152;2022-07-03T01:49:51;7.80;;;2.20;;
10174;SDS011;18221;38.704;0.152;2022-07-03T01:52:22;4.80;;;2.40;;
10174;SDS011;18221;38.704;0.152;2022-07-03T01:54:52;4.13;;;2.40;;
10174;SDS011;18221;38.704;0.152;2022-07-03T01:57:30;4.07;;;2.60;;
10174;SDS011;18221;38.704;0.152;2022-07-03T02:00:09;5.87;;;2.50;;
10174;SDS011;18221;38.704;0.152;2022-07-03T02:02:40;2.90;;;2.47;;
10174;SDS011;18221;38.704;0.152;2022-07-03T02:05:20;6.17;;;2.77;;
10174;SDS011;18221;38.704;0.152;2022-07-03T02:07:59;5.53;;;2.63;;
10174;SDS011;18221;38.704;0.152;2022-07-03T02:10:38;4.60;;;2.67;;
10174;SDS011;18221;38.704;0.152;2022-07-03T02:13:16;4.57;;;2.70;;
10174;SDS011;18221;38.704;0.152;2022-07-03T02:15:50;5.77;;;2.50;;
10174;SDS011;18221;38.704;0.152;2022-07-03T02:18:25;5.07;;;2.63;;
10174;SDS011;18221;38.704;0.152;2022-07-03T02:21:02;3.60;;;2.60;;
10174;SDS011;18221;38.704;0.152;2022-07-03T02:23:39;3.33;;;2.40;;
10174;SDS011;18221;38.704;0.152;2022-07-03T02:26:20;7.10;;;3.03;;
10174;SDS011;18221;38.704;0.152;2022-07-03T02:29:03;3.73;;;2.63;;
10174;SDS011;18221;38.704;0.152;2022-07-03T02:31:34;4.23;;;2.50;;
10174;SDS011;18221;38.704;0.152;2022-07-03T02:34:10;7.07;;;2.67;;
10174;SDS011;18221;38.704;0.152;2022-07-03T02:36:45;4.03;;;2.67;;
10174;SDS011;18221;38.704;0.152;2022-07-03T02:39:18;4.23;;;2.77;;
10174;SDS011;18221;38.704;0.152;2022-07-03T02:41:57;5.03;;;2.67;;
10174;SDS011;18221;38.704;0.152;2022-07-03T02:44:31;4.57;;;2.70;;
10174;SDS011;18221;38.704;0.152;2022-07-03T02:47:10;5.10;;;3.00;;
10174;SDS011;18221;38.704;0.152;2022-07-03T02:49:53;3.97;;;2.77;;
10174;SDS011;18221;38.704;0.152;2022-07-03T02:52:32;6.87;;;2.93;;
10174;SDS011;18221;38.704;0.152;2022-07-03T02:55:40;5.77;;;2.70;;
10174;SDS011;18221;38.704;0.152;2022-07-03T02:58:17;5.27;;;2.60;;
10174;SDS011;18221;38.704;0.152;2022-07-03T03:01:25;3.07;;;2.60;;
10174;SDS011;18221;38.704;0.152;2022-07-03T03:04:09;5.63;;;2.70;;
10174;SDS011;18221;38.704;0.152;2022-07-03T03:06:47;3.43;;;2.60;;
10174;SDS011;18221;38.704;0.152;2022-07-03T03:09:24;4.17;;;2.50;;
10174;SDS011;18221;38.704;0.152;2022-07-03T03:12:00;4.20;;;2.47;;
10174;SDS011;18221;38.704;0.152;2022-07-03T03:14:34;5.20;;;2.57;;
10174;SDS011;18221;38.704;0.152;2022-07-03T03:17:15;5.50;;;2.80;;
10174;SDS011;18221;38.704;0.152;2022-07-03T03:19:51;3.90;;;2.70;;
10174;SDS011;18221;38.704;0.152;2022-07-03T03:22:25;4.37;;;2.70;;
10174;SDS011;18221;38.704;0.152;2022-07-03T03:25:07;5.67;;;2.90;;
10174;SDS011;18221;38.704;0.152;2022-07-03T03:27:35;4.73;;;2.90;;
10174;SDS011;18221;38.704;0.152;2022-07-03T03:30:03;4.73;;;2.60;;
10174;SDS011;18221;38.704;0.152;2022-07-03T03:32:35;3.90;;;2.67;;
10174;SDS011;18221;38.704;0.152;2022-07-03T03:35:05;5.23;;;2.70;;
10174;SDS011;18221;38.704;0.152;2022-07-03T03:37:34;5.47;;;2.97;;
10174;SDS011;18221;38.704;0.152;2022-07-03T03:40:02;4.17;;;2.50;;
10174;SDS011;18221;38.704;0.152;2022-07-03T03:42:31;5.43;;;2.60;;
10174;SDS011;18221;38.704;0.152;2022-07-03T03:44:59;4.10;;;2.50;;
10174;SDS011;18221;38.704;0.152;2022-07-03T03:47:27;4.77;;;2.73;;
10174;SDS011;18221;38.704;0.152;2022-07-03T03:49:57;4.57;;;2.40;;
10174;SDS011;18221;38.704;0.152;2022-07-03T03:52:25;3.70;;;2.47;;
10174;SDS011;18221;38.704;0.152;2022-07-03T03:54:54;3.30;;;2.30;;
10174;SDS011;18221;38.704;0.152;2022-07-03T03:57:23;3.43;;;2.23;;
10174;SDS011;18221;38.704;0.152;2022-07-03T03:59:52;4.17;;;2.00;;
10174;SDS011;18221;38.704;0.152;2022-07-03T04:02:22;3.93;;;2.43;;
10174;SDS011;18221;38.704;0.152;2022-07-03T04:04:50;4.00;;;2.00;;
10174;SDS011;18221;38.704;0.152;2022-07-03T04:07:19;4.00;;;2.07;;
10174;SDS011;18221;38.704;0.152;2022-07-03T04:09:47;3.03;;;2.13;;
10174;SDS011;18221;38.704;0.152;2022-07-03T04:12:15;3.80;;;2.50;;
10174;SDS011;18221;38.704;0.152;2022-07-03T04:14:43;6.23;;;2.63;;
10174;SDS011;18221;38.704;0.152;2022-07-03T04:17:11;4.03;;;2.50;;
10174;SDS011;18221;38.704;0.152;2022-07-03T04:19:40;5.63;;;2.50;;
10174;SDS011;18221;38.704;0.152;2022-07-03T04:22:08;4.53;;;2.80;;
10174;SDS011;18221;38.704;0.152;2022-07-03T04:24:38;4.43;;;2.70;;
10174;SDS011;18221;38.704;0.152;2022-07-03T04:27:05;7.63;;;2.93;;
10174;SDS011;18221;38.704;0.152;2022-07-03T04:29:33;5.70;;;3.03;;
10174;SDS011;18221;38.704;0.152;2022-07-03T04:32:02;6.70;;;3.03;;
10174;SDS011;18221;38.704;0.152;2022-07-03T04:34:31;7.60;;;3.37;;
10174;SDS011;18221;38.704;0.152;2022-07-03T04:36:59;8.73;;;3.40;;
10174;SDS011;18221;38.704;0.152;2022-07-03T04:39:27;8.27;;;3.50;;
10174;SDS011;18221;38.704;0.152;2022-07-03T04:41:56;5.47;;;3.17;;
10174;SDS011;18221;38.704;0.152;2022-07-03T04:44:24;7.67;;;3.53;;
10174;SDS011;18221;38.704;0.152;2022-07-03T04:46:52;6.50;;;2.90;;
10174;SDS011;18221;38.704;0.152;2022-07-03T04:49:20;6.27;;;3.37;;
10174;SDS011;18221;38.704;0.152;2022-07-03T04:51:48;5.67;;;3.30;;
10174;SDS011;18221;38.704;0.152;2022-07-03T04:54:18;5.83;;;3.07;;
10174;SDS011;18221;38.704;0.152;2022-07-03T04:56:46;4.83;;;3.57;;
10174;SDS011;18221;38.704;0.152;2022-07-03T04:59:15;5.43;;;4.00;;
10174;SDS011;18221;38.704;0.152;2022-07-03T05:01:43;6.50;;;4.10;;
10174;SDS011;18221;38.704;0.152;2022-07-03T05:04:13;7.27;;;4.13;;
10174;SDS011;18221;38.704;0.152;2022-07-03T05:06:41;7.63;;;3.90;;
10174;SDS011;18221;38.704;0.152;2022-07-03T05:09:09;6.47;;;4.27;;
10174;SDS011;18221;38.704;0.152;2022-07-03T05:11:37;6.57;;;4.27;;
10174;SDS011;18221;38.704;0.152;2022-07-03T05:14:05;12.10;;;4.00;;
10174;SDS011;18221;38.704;0.152;2022-07-03T05:16:35;6.57;;;4.30;;
10174;SDS011;18221;38.704;0.152;2022-07-03T05:19:03;7.43;;;4.20;;
10174;SDS011;18221;38.704;0.152;2022-07-03T05:21:31;5.37;;;4.10;;
10174;SDS011;18221;38.704;0.152;2022-07-03T05:23:59;7.10;;;4.47;;
10174;SDS011;18221;38.704;0.152;2022-07-03T05:26:27;11.13;;;4.63;;
10174;SDS011;18221;38.704;0.152;2022-07-03T05:28:55;7.20;;;4.40;;
10174;SDS011;18221;38.704;0.152;2022-07-03T05:31:23;7.50;;;4.47;;
10174;SDS011;18221;38.704;0.152;2022-07-03T05:33:52;6.27;;;4.53;;
10174;SDS011;18221;38.704;0.152;2022-07-03T05:36:20;8.40;;;4.80;;
10174;SDS011;18221;38.704;0.152;2022-07-03T05:38:48;11.97;;;4.90;;
10174;SDS011;18221;38.704;0.152;2022-07-03T05:41:33;8.33;;;5.03;;
10174;SDS011;18221;38.704;0.152;2022-07-03T05:44:01;6.53;;;4.43;;
10174;SDS011;18221;38.704;0.152;2022-07-03T05:46:30;8.77;;;4.40;;
10174;SDS011;18221;38.704;0.152;2022-07-03T05:48:59;5.53;;;4.07;;
10174;SDS011;18221;38.704;0.152;2022-07-03T05:51:27;8.90;;;4.37;;
10174;SDS011;18221;38.704;0.152;2022-07-03T05:53:55;7.73;;;3.80;;
10174;SDS011;18221;38.704;0.152;2022-07-03T05:56:23;7.47;;;4.00;;
10174;SDS011;18221;38.704;0.152;2022-07-03T05:58:51;5.47;;;4.27;;
10174;SDS011;18221;38.704;0.152;2022-07-03T06:01:19;7.23;;;4.37;;
10174;SDS011;18221;38.704;0.152;2022-07-03T06:03:48;6.27;;;4.40;;
10174;SDS011;18221;38.704;0.152;2022-07-03T06:06:18;9.37;;;4.40;;
10174;SDS011;18221;38.704;0.152;2022-07-03T06:08:45;5.10;;;3.80;;
10174;SDS011;18221;38.704;0.152;2022-07-03T06:11:13;6.47;;;3.83;;
10174;SDS011;18221;38.704;0.152;2022-07-03T06:13:41;6.37;;;3.90;;
10174;SDS011;18221;38.704;0.152;2022-07-03T06:16:09;5.40;;;3.50;;
10174;SDS011;18221;38.704;0.152;2022-07-03T06:18:37;8.73;;;3.27;;
10174;SDS011;18221;38.704;0.152;2022-07-03T06:21:05;6.67;;;3.10;;
10174;SDS011;18221;38.704;0.152;2022-07-03T06:23:35;4.73;;;2.90;;
10174;SDS011;18221;38.704;0.152;2022-07-03T06:26:03;3.57;;;3.10;;
10174;SDS011;18221;38.704;0.152;2022-07-03T06:28:31;4.90;;;3.20;;
10174;SDS011;18221;38.704;0.152;2022-07-03T06:30:58;4.27;;;2.80;;
10174;SDS011;18221;38.704;0.152;2022-07-03T06:33:26;5.10;;;3.10;;
10174;SDS011;18221;38.704;0.152;2022-07-03T06:35:54;7.10;;;3.17;;
10174;SDS011;18221;38.704;0.152;2022-07-03T06:38:22;5.53;;;2.87;;
10174;SDS011;18221;38.704;0.152;2022-07-03T06:40:52;5.23;;;2.80;;
10174;SDS011;18221;38.704;0.152;2022-07-03T06:43:20;6.37;;;3.03;;
10174;SDS011;18221;38.704;0.152;2022-07-03T06:45:47;4.77;;;2.80;;
10174;SDS011;18221;38.704;0.152;2022-07-03T06:48:16;4.73;;;2.90;;
10174;SDS011;18221;38.704;0.152;2022-07-03T06:50:45;11.77;;;3.50;;
10174;SDS011;18221;38.704;0.152;2022-07-03T06:53:13;3.37;;;3.00;;
10174;SDS011;18221;38.704;0.152;2022-07-03T06:55:41;3.10;;;2.70;;
10174;SDS011;18221;38.704;0.152;2022-07-03T06:58:10;3.77;;;2.80;;
10174;SDS011;18221;38.704;0.152;2022-07-03T07:00:38;3.37;;;3.00;;
10174;SDS011;18221;38.704;0.152;2022-07-03T07:03:07;4.23;;;3.00;;
10174;SDS011;18221;38.704;0.152;2022-07-03T07:05:35;4.30;;;2.80;;
10174;SDS011;18221;38.704;0.152;2022-07-03T07:08:03;4.83;;;3.00;;
10174;SDS011;18221;38.704;0.152;2022-07-03T07:10:31;4.07;;;3.00;;
10174;SDS011;18221;38.704;0.152;2022-07-03T07:12:59;4.63;;;2.97;;
10174;SDS011;18221;38.704;0.152;2022-07-03T07:15:28;8.20;;;2.90;;
10174;SDS011;18221;38.704;0.152;2022-07-03T07:17:56;4.73;;;2.90;;
10174;SDS011;18221;38.704;0.152;2022-07-03T07:20:24;4.17;;;2.83;;
10174;SDS011;18221;38.704;0.152;2022-07-03T07:22:52;5.47;;;2.53;;
10174;SDS011;18221;38.704;0.152;2022-07-03T07:25:20;3.00;;;2.60;;
10174;SDS011;18221;38.704;0.152;2022-07-03T07:27:48;5.37;;;3.00;;
10174;SDS011;18221;38.704;0.152;2022-07-03T07:30:16;5.33;;;2.90;;
10174;SDS011;18221;38.704;0.152;2022-07-03T07:32:45;5.73;;;2.73;;
10174;SDS011;18221;38.704;0.152;2022-07-03T07:35:13;3.93;;;2.50;;
10174;SDS011;18221;38.704;0.152;2022-07-03T07:37:42;3.40;;;2.40;;
10174;SDS011;18221;38.704;0.152;2022-07-03T07:40:11;4.00;;;2.43;;
10174;SDS011;18221;38.704;0.152;2022-07-03T07:42:39;3.10;;;2.57;;
10174;SDS011;18221;38.704;0.152;2022-07-03T07:45:08;5.03;;;2.50;;
10174;SDS011;18221;38.704;0.152;2022-07-03T07:47:37;5.73;;;2.73;;
10174;SDS011;18221;38.704;0.152;2022-07-03T07:50:07;6.87;;;2.60;;
10174;SDS011;18221;38.704;0.152;2022-07-03T07:52:36;3.73;;;2.40;;
10174;SDS011;18221;38.704;0.152;2022-07-03T07:55:05;5.87;;;2.33;;
10174;SDS011;18221;38.704;0.152;2022-07-03T07:57:34;6.40;;;2.53;;
10174;SDS011;18221;38.704;0.152;2022-07-03T08:00:06;3.70;;;2.20;;
10174;SDS011;18221;38.704;0.152;2022-07-03T08:02:36;3.77;;;2.40;;
10174;SDS011;18221;38.704;0.152;2022-07-03T08:05:23;4.57;;;1.93;;
10174;SDS011;18221;38.704;0.152;2022-07-03T08:08:06;3.00;;;1.93;;
10174;SDS011;18221;38.704;0.152;2022-07-03T08:10:36;3.80;;;2.17;;
10174;SDS011;18221;38.704;0.152;2022-07-03T08:13:07;4.60;;;2.60;;
10174;SDS011;18221;38.704;0.152;2022-07-03T08:15:36;4.33;;;2.20;;
10174;SDS011;18221;38.704;0.152;2022-07-03T08:18:04;3.23;;;2.23;;
10174;SDS011;18221;38.704;0.152;2022-07-03T08:20:35;3.87;;;2.43;;
10174;SDS011;18221;38.704;0.152;2022-07-03T08:23:03;5.07;;;2.40;;
10174;SDS011;18221;38.704;0.152;2022-07-03T08:25:32;3.80;;;2.33;;
10174;SDS011;18221;38.704;0.152;2022-07-03T08:28:00;3.95;;;1.90;;
10174;SDS011;18221;38.704;0.152;2022-07-03T08:30:28;6.63;;;2.40;;
10174;SDS011;18221;38.704;0.152;2022-07-03T08:32:57;4.90;;;2.20;;
10174;SDS011;18221;38.704;0.152;2022-07-03T08:35:26;4.47;;;2.25;;
10174;SDS011;18221;38.704;0.152;2022-07-03T08:37:56;5.23;;;2.30;;
10174;SDS011;18221;38.704;0.152;2022-07-03T08:40:24;5.50;;;2.30;;
10174;SDS011;18221;38.704;0.152;2022-07-03T08:42:52;2.78;;;2.05;;
10174;SDS011;18221;38.704;0.152;2022-07-03T08:45:23;3.58;;;2.08;;
10174;SDS011;18221;38.704;0.152;2022-07-03T08:47:53;8.07;;;2.55;;
10174;SDS011;18221;38.704;0.152;2022-07-03T08:50:23;3.45;;;2.20;;
10174;SDS011;18221;38.704;0.152;2022-07-03T08:52:52;3.22;;;2.05;;
10174;SDS011;18221;38.704;0.152;2022-07-03T08:55:21;4.25;;;2.00;;
10174;SDS011;18221;38.704;0.152;2022-07-03T08:57:49;3.15;;;2.17;;
10174;SDS011;18221;38.704;0.152;2022-07-03T09:00:20;4.63;;;1.85;;
10174;SDS011;18221;38.704;0.152;2022-07-03T09:02:49;4.30;;;2.00;;
10174;SDS011;18221;38.704;0.152;2022-07-03T09:05:16;3.25;;;2.00;;
10174;SDS011;18221;38.704;0.152;2022-07-03T09:07:45;3.20;;;2.03;;
10174;SDS011;18221;38.704;0.152;2022-07-03T09:10:14;4.15;;;2.13;;
10174;SDS011;18221;38.704;0.152;2022-07-03T09:12:46;3.38;;;1.90;;
10174;SDS011;18221;38.704;0.152;2022-07-03T09:15:15;4.78;;;2.20;;
10174;SDS011;18221;38.704;0.152;2022-07-03T09:17:55;4.40;;;2.13;;
10174;SDS011;18221;38.704;0.152;2022-07-03T09:20:29;4.20;;;2.20;;
10174;SDS011;18221;38.704;0.152;2022-07-03T09:23:09;3.70;;;2.00;;
10174;SDS011;18221;38.704;0.152;2022-07-03T09:31:12;4.35;;;2.10;;
10174;SDS011;18221;38.704;0.152;2022-07-03T09:33:53;3.85;;;2.28;;
10174;SDS011;18221;38.704;0.152;2022-07-03T09:36:36;4.30;;;2.20;;
10174;SDS011;18221;38.704;0.152;2022-07-03T09:39:13;3.60;;;2.10;;
10174;SDS011;18221;38.704;0.152;2022-07-03T09:41:50;4.75;;;2.30;;
10174;SDS011;18221;38.704;0.152;2022-07-03T09:44:38;5.03;;;2.38;;
10174;SDS011;18221;38.704;0.152;2022-07-03T09:47:11;3.67;;;2.42;;
10174;SDS011;18221;38.704;0.152;2022-07-03T09:49:44;4.60;;;2.53;;
10174;SDS011;18221;38.704;0.152;2022-07-03T09:52:29;8.52;;;2.47;;
10174;SDS011;18221;38.704;0.152;2022-07-03T09:55:01;3.88;;;2.60;;
10174;SDS011;18221;38.704;0.152;2022-07-03T09:57:41;5.65;;;2.50;;
10174;SDS011;18221;38.704;0.152;2022-07-03T10:00:13;4.15;;;2.50;;
10174;SDS011;18221;38.704;0.152;2022-07-03T10:02:56;6.15;;;2.72;;
10174;SDS011;18221;38.704;0.152;2022-07-03T10:05:28;5.18;;;2.60;;
10174;SDS011;18221;38.704;0.152;2022-07-03T10:07:58;3.97;;;2.42;;
10174;SDS011;18221;38.704;0.152;2022-07-03T10:10:30;6.25;;;2.85;;
10174;SDS011;18221;38.704;0.152;2022-07-03T10:13:01;6.72;;;2.60;;
10174;SDS011;18221;38.704;0.152;2022-07-03T10:15:32;4.13;;;2.38;;
10174;SDS011;18221;38.704;0.152;2022-07-03T10:18:03;5.53;;;2.63;;
10174;SDS011;18221;38.704;0.152;2022-07-03T10:20:34;7.05;;;2.80;;
10174;SDS011;18221;38.704;0.152;2022-07-03T10:23:05;5.25;;;2.88;;
10174;SDS011;18221;38.704;0.152;2022-07-03T10:25:35;6.22;;;2.63;;
10174;SDS011;18221;38.704;0.152;2022-07-03T10:28:06;4.70;;;2.72;;
10174;SDS011;18221;38.704;0.152;2022-07-03T10:30:40;5.97;;;2.72;;
10174;SDS011;18221;38.704;0.152;2022-07-03T10:33:11;2.72;;;2.50;;
10174;SDS011;18221;38.704;0.152;2022-07-03T10:35:39;4.32;;;2.55;;
10174;SDS011;18221;38.704;0.152;2022-07-03T10:38:17;4.43;;;2.58;;
10174;SDS011;18221;38.704;0.152;2022-07-03T10:40:57;5.65;;;2.60;;
10174;SDS011;18221;38.704;0.152;2022-07-03T10:43:50;5.32;;;2.75;;
10174;SDS011;18221;38.704;0.152;2022-07-03T10:46:38;5.18;;;2.70;;
10174;SDS011;18221;38.704;0.152;2022-07-03T10:49:07;4.90;;;2.70;;
10174;SDS011;18221;38.704;0.152;2022-07-03T10:51:53;4.43;;;2.40;;
10174;SDS011;18221;38.704;0.152;2022-07-03T10:54:23;3.55;;;2.25;;
10174;SDS011;18221;38.704;0.152;2022-07-03T10:57:08;2.75;;;2.10;;
10174;SDS011;18221;38.704;0.152;2022-07-03T11:00:07;5.70;;;2.72;;
10174;SDS011;18221;38.704;0.152;2022-07-03T11:02:43;5.70;;;2.28;;
10174;SDS011;18221;38.704;0.152;2022-07-03T11:05:14;3.53;;;2.30;;
10174;SDS011;18221;38.704;0.152;2022-07-03T11:10:37;4.47;;;2.42;;
10174;SDS011;18221;38.704;0.152;2022-07-03T11:13:13;6.30;;;2.30;;
10174;SDS011;18221;38.704;0.152;2022-07-03T11:15:47;5.10;;;2.40;;
10174;SDS011;18221;38.704;0.152;2022-07-03T11:18:20;8.00;;;2.60;;
10174;SDS011;18221;38.704;0.152;2022-07-03T11:21:02;4.05;;;1.90;;
10174;SDS011;18221;38.704;0.152;2022-07-03T11:27:20;4.07;;;2.25;;
10174;SDS011;18221;38.704;0.152;2022-07-03T11:29:54;7.82;;;2.33;;
10174;SDS011;18221;38.704;0.152;2022-07-03T11:32:48;3.60;;;1.88;;
10174;SDS011;18221;38.704;0.152;2022-07-03T11:38:26;4.28;;;1.90;;
10174;SDS011;18221;38.704;0.152;2022-07-03T11:40:57;6.82;;;2.08;;
10174;SDS011;18221;38.704;0.152;2022-07-03T11:43:27;3.30;;;1.83;;
10174;SDS011;18221;38.704;0.152;2022-07-03T11:45:55;5.03;;;2.00;;
10174;SDS011;18221;38.704;0.152;2022-07-03T11:48:25;6.93;;;2.63;;
10174;SDS011;18221;38.704;0.152;2022-07-03T11:51:00;4.88;;;2.25;;
10174;SDS011;18221;38.704;0.152;2022-07-03T11:53:30;3.75;;;2.15;;
10174;SDS011;18221;38.704;0.152;2022-07-03T11:56:02;2.35;;;1.90;;
10174;SDS011;18221;38.704;0.152;2022-07-03T11:58:42;3.63;;;1.85;;
10174;SDS011;18221;38.704;0.152;2022-07-03T12:01:27;3.67;;;2.00;;
10174;SDS011;18221;38.704;0.152;2022-07-03T12:04:05;3.53;;;1.65;;
10174;SDS011;18221;38.704;0.152;2022-07-03T12:06:37;5.25;;;2.33;;
10174;SDS011;18221;38.704;0.152;2022-07-03T12:09:11;4.25;;;1.90;;
10174;SDS011;18221;38.704;0.152;2022-07-03T12:11:56;7.85;;;1.92;;
10174;SDS011;18221;38.704;0.152;2022-07-03T12:14:40;6.85;;;2.08;;
10174;SDS011;18221;38.704;0.152;2022-07-03T12:17:10;3.15;;;1.70;;
10174;SDS011;18221;38.704;0.152;2022-07-03T12:19:44;3.53;;;1.70;;
10174;SDS011;18221;38.704;0.152;2022-07-03T12:22:23;2.55;;;1.67;;
10174;SDS011;18221;38.704;0.152;2022-07-03T12:24:58;3.20;;;1.55;;
10174;SDS011;18221;38.704;0.152;2022-07-03T12:27:27;5.13;;;1.90;;
10174;SDS011;18221;38.704;0.152;2022-07-03T12:29:57;5.30;;;1.73;;
10174;SDS011;18221;38.704;0.152;2022-07-03T12:32:25;5.85;;;2.05;;
10174;SDS011;18221;38.704;0.152;2022-07-03T12:34:54;5.15;;;1.83;;
10174;SDS011;18221;38.704;0.152;2022-07-03T12:37:34;5.93;;;2.33;;
10174;SDS011;18221;38.704;0.152;2022-07-03T12:40:03;5.90;;;2.10;;
10174;SDS011;18221;38.704;0.152;2022-07-03T12:42:42;6.63;;;2.50;;
10174;SDS011;18221;38.704;0.152;2022-07-03T12:45:12;6.75;;;2.20;;
10174;SDS011;18221;38.704;0.152;2022-07-03T12:47:41;4.53;;;1.70;;
10174;SDS011;18221;38.704;0.152;2022-07-03T12:50:10;3.70;;;2.10;;
10174;SDS011;18221;38.704;0.152;2022-07-03T12:52:51;5.50;;;2.10;;
10174;SDS011;18221;38.704;0.152;2022-07-03T12:55:24;2.42;;;1.83;;
10174;SDS011;18221;38.704;0.152;2022-07-03T12:58:11;6.45;;;1.70;;
10174;SDS011;18221;38.704;0.152;2022-07-03T13:00:59;3.90;;;1.70;;
10174;SDS011;18221;38.704;0.152;2022-07-03T13:03:28;3.33;;;1.65;;
10174;SDS011;18221;38.704;0.152;2022-07-03T13:06:01;2.90;;;1.65;;
10174;SDS011;18221;38.704;0.152;2022-07-03T13:08:40;5.38;;;2.20;;
10174;SDS011;18221;38.704;0.152;2022-07-03T13:11:31;4.15;;;1.67;;
10174;SDS011;18221;38.704;0.152;2022-07-03T13:14:02;2.22;;;1.65;;
10174;SDS011;18221;38.704;0.152;2022-07-03T13:16:36;3.00;;;1.65;;
10174;SDS011;18221;38.704;0.152;2022-07-03T13:19:12;3.22;;;1.85;;
10174;SDS011;18221;38.704;0.152;2022-07-03T13:21:41;4.68;;;1.63;;
10174;SDS011;18221;38.704;0.152;2022-07-03T13:24:12;4.35;;;1.95;;
10174;SDS011;18221;38.704;0.152;2022-07-03T13:26:41;2.97;;;1.52;;
10174;SDS011;18221;38.704;0.152;2022-07-03T13:29:10;2.50;;;1.58;;
10174;SDS011;18221;38.704;0.152;2022-07-03T13:31:38;4.88;;;1.70;;
10174;SDS011;18221;38.704;0.152;2022-07-03T13:34:06;5.43;;;2.20;;
10174;SDS011;18221;38.704;0.152;2022-07-03T13:36:34;6.47;;;2.05;;
10174;SDS011;18221;38.704;0.152;2022-07-03T13:39:02;7.05;;;2.10;;
10174;SDS011;18221;38.704;0.152;2022-07-03T13:41:34;3.72;;;1.67;;
10174;SDS011;18221;38.704;0.152;2022-07-03T13:44:03;3.22;;;1.73;;
10174;SDS011;18221;38.704;0.152;2022-07-03T13:46:31;7.10;;;1.90;;
10174;SDS011;18221;38.704;0.152;2022-07-03T13:48:59;4.75;;;1.80;;
10174;SDS011;18221;38.704;0.152;2022-07-03T13:51:27;6.32;;;1.58;;
10174;SDS011;18221;38.704;0.152;2022-07-03T13:53:55;8.73;;;2.17;;
10174;SDS011;18221;38.704;0.152;2022-07-03T13:56:23;5.63;;;1.90;;
10174;SDS011;18221;38.704;0.152;2022-07-03T13:58:52;3.40;;;1.80;;
10174;SDS011;18221;38.704;0.152;2022-07-03T14:01:21;3.47;;;1.80;;
10174;SDS011;18221;38.704;0.152;2022-07-03T14:03:49;3.08;;;1.90;;
10174;SDS011;18221;38.704;0.152;2022-07-03T14:06:17;7.82;;;2.38;;
10174;SDS011;18221;38.704;0.152;2022-07-03T14:08:45;9.82;;;2.33;;
10174;SDS011;18221;38.704;0.152;2022-07-03T14:11:13;6.53;;;2.10;;
10174;SDS011;18221;38.704;0.152;2022-07-03T14:13:41;4.78;;;2.20;;
10174;SDS011;18221;38.704;0.152;2022-07-03T14:16:12;5.95;;;2.00;;
10174;SDS011;18221;38.704;0.152;2022-07-03T14:18:40;4.68;;;2.10;;
10174;SDS011;18221;38.704;0.152;2022-07-03T14:21:07;6.10;;;1.80;;
10174;SDS011;18221;38.704;0.152;2022-07-03T14:23:35;6.05;;;1.80;;
10174;SDS011;18221;38.704;0.152;2022-07-03T14:26:03;4.80;;;2.28;;
10174;SDS011;18221;38.704;0.152;2022-07-03T14:28:31;4.78;;;1.70;;
10174;SDS011;18221;38.704;0.152;2022-07-03T14:31:18;4.43;;;1.90;;
10174;SDS011;18221;38.704;0.152;2022-07-03T14:34:03;3.65;;;2.03;;
10174;SDS011;18221;38.704;0.152;2022-07-03T14:36:31;4.13;;;1.77;;
10174;SDS011;18221;38.704;0.152;2022-07-03T14:38:59;3.75;;;1.88;;
10174;SDS011;18221;38.704;0.152;2022-07-03T14:41:27;3.17;;;1.90;;
10174;SDS011;18221;38.704;0.152;2022-07-03T14:43:55;3.72;;;1.95;;
10174;SDS011;18221;38.704;0.152;2022-07-03T14:46:24;5.60;;;2.10;;
10174;SDS011;18221;38.704;0.152;2022-07-03T14:48:52;4.10;;;1.65;;
10174;SDS011;18221;38.704;0.152;2022-07-03T14:51:20;3.58;;;1.80;;
10174;SDS011;18221;38.704;0.152;2022-07-03T14:53:48;6.75;;;2.17;;
10174;SDS011;18221;38.704;0.152;2022-07-03T14:56:17;4.70;;;2.00;;
10174;SDS011;18221;38.704;0.152;2022-07-03T14:58:46;4.90;;;2.15;;
10174;SDS011;18221;38.704;0.152;2022-07-03T15:01:17;5.95;;;1.90;;
10174;SDS011;18221;38.704;0.152;2022-07-03T15:03:49;3.25;;;1.85;;
10174;SDS011;18221;38.704;0.152;2022-07-03T15:06:26;3.97;;;2.22;;
10174;SDS011;18221;38.704;0.152;2022-07-03T15:08:58;3.47;;;1.90;;
10174;SDS011;18221;38.704;0.152;2022-07-03T15:11:32;5.82;;;1.90;;
10174;SDS011;18221;38.704;0.152;2022-07-03T15:14:23;5.15;;;1.95;;
10174;SDS011;18221;38.704;0.152;2022-07-03T15:16:55;4.53;;;2.03;;
10174;SDS011;18221;38.704;0.152;2022-07-03T15:19:28;4.18;;;1.65;;
10174;SDS011;18221;38.704;0.152;2022-07-03T15:22:01;6.57;;;2.20;;
10174;SDS011;18221;38.704;0.152;2022-07-03T15:24:31;5.32;;;2.10;;
10174;SDS011;18221;38.704;0.152;2022-07-03T15:27:02;6.20;;;1.88;;
10174;SDS011;18221;38.704;0.152;2022-07-03T15:29:32;3.75;;;2.08;;
10174;SDS011;18221;38.704;0.152;2022-07-03T15:32:03;3.63;;;1.70;;
10174;SDS011;18221;38.704;0.152;2022-07-03T15:34:33;7.55;;;2.08;;
10174;SDS011;18221;38.704;0.152;2022-07-03T15:37:07;2.88;;;1.60;;
10174;SDS011;18221;38.704;0.152;2022-07-03T15:39:53;4.13;;;2.00;;
10174;SDS011;18221;38.704;0.152;2022-07-03T15:42:30;2.80;;;1.60;;